createdAt,value
2022-11-13T00:00:43.471Z,74.70
2022-11-13T00:03:37.074Z,74.37
2022-11-13T00:06:29.019Z,74.35
2022-11-13T00:09:20.408Z,74.60
2022-11-13T00:12:11.974Z,74.76
2022-11-13T00:15:05.178Z,74.83
2022-11-13T00:17:59.624Z,74.23
2022-11-13T00:20:51.007Z,74.66
2022-11-13T00:23:42.476Z,74.61
2022-11-13T00:26:33.709Z,74.83
2022-11-13T00:29:26.023Z,74.43
2022-11-13T00:32:20.530Z,74.55
2022-11-13T00:35:12.298Z,74.85
2022-11-13T00:38:03.718Z,74.75
2022-11-13T00:40:55.121Z,74.58
2022-11-13T00:43:46.812Z,74.75
2022-11-13T00:46:37.989Z,74.40
2022-11-13T00:49:31.014Z,75.00
2022-11-13T00:52:22.675Z,74.51
2022-11-13T00:55:14.175Z,74.88
2022-11-13T00:58:08.076Z,74.65
2022-11-13T01:01:05.698Z,74.63
2022-11-13T01:03:58.398Z,74.54
2022-11-13T01:06:52.915Z,74.71
2022-11-13T01:09:46.154Z,74.40
2022-11-13T01:12:38.213Z,74.90
2022-11-13T01:15:30.410Z,74.66
2022-11-13T01:18:22.056Z,74.34
2022-11-13T01:21:16.571Z,74.38
2022-11-13T01:24:11.928Z,74.56
2022-11-13T01:27:03.848Z,74.43
2022-11-13T01:29:58.246Z,74.48
2022-11-13T01:32:49.626Z,74.31
2022-11-13T01:35:42.844Z,74.52
2022-11-13T01:38:36.733Z,74.77
2022-11-13T01:41:31.833Z,74.90
2022-11-13T01:44:23.405Z,74.63
2022-11-13T01:47:15.250Z,74.24
2022-11-13T01:50:07.489Z,74.33
2022-11-13T01:52:59.124Z,74.43
2022-11-13T01:55:51.262Z,74.24
2022-11-13T01:58:47.558Z,74.23
2022-11-13T02:01:38.887Z,74.26
2022-11-13T02:04:31.445Z,74.37
2022-11-13T02:07:23.380Z,74.77
2022-11-13T02:10:14.977Z,74.28
2022-11-13T02:13:06.803Z,74.37
2022-11-13T02:16:00.079Z,74.26
2022-11-13T02:18:52.411Z,74.29
2022-11-13T02:21:54.194Z,74.30
2022-11-13T02:24:52.252Z,74.25
2022-11-13T02:27:48.284Z,74.23
2022-11-13T02:30:39.861Z,73.96
2022-11-13T02:33:34.082Z,74.46
2022-11-13T02:36:31.760Z,74.34
2022-11-13T02:39:24.922Z,74.46
2022-11-13T02:42:17.685Z,74.79
2022-11-13T02:45:09.587Z,74.76
2022-11-13T02:48:01.586Z,74.49
2022-11-13T02:50:53.559Z,74.76
2022-11-13T02:53:48.423Z,74.42
2022-11-13T02:56:39.845Z,74.34
2022-11-13T02:59:32.126Z,74.56
2022-11-13T03:02:23.914Z,74.50
2022-11-13T03:05:15.638Z,74.55
2022-11-13T03:08:07.544Z,74.35
2022-11-13T03:10:59.191Z,74.78
2022-11-13T03:13:50.449Z,74.52
2022-11-13T03:16:43.446Z,74.61
2022-11-13T03:19:36.445Z,74.56
2022-11-13T03:22:28.123Z,74.18
2022-11-13T03:25:19.571Z,74.42
2022-11-13T03:28:11.589Z,74.80
2022-11-13T03:31:03.196Z,74.61
2022-11-13T03:33:56.633Z,74.61
2022-11-13T03:36:48.867Z,74.30
2022-11-13T03:39:40.346Z,73.80
2022-11-13T03:42:36.213Z,74.31
2022-11-13T03:45:27.976Z,74.09
2022-11-13T03:48:19.354Z,74.42
2022-11-13T03:51:12.504Z,74.28
2022-11-13T03:54:04.180Z,74.25
2022-11-13T03:56:55.304Z,74.35
2022-11-13T03:59:47.012Z,74.55
2022-11-13T04:02:38.748Z,74.28
2022-11-13T04:05:30.905Z,74.18
2022-11-13T04:08:23.842Z,74.09
2022-11-13T04:11:15.491Z,74.04
2022-11-13T04:14:06.654Z,74.74
2022-11-13T04:16:58.309Z,74.22
2022-11-13T04:19:49.461Z,74.26
2022-11-13T04:22:40.965Z,73.94
2022-11-13T04:25:34.267Z,73.80
2022-11-13T04:28:26.081Z,73.79
2022-11-13T04:31:17.893Z,74.05
2022-11-13T04:34:09.821Z,74.26
2022-11-13T04:37:04.280Z,74.14
2022-11-13T04:39:56.355Z,74.20
2022-11-13T04:42:54.420Z,74.21
2022-11-13T04:45:46.096Z,74.11
2022-11-13T04:48:37.629Z,73.97
2022-11-13T04:51:28.858Z,73.79
2022-11-13T04:54:24.309Z,73.60
2022-11-13T04:57:18.851Z,73.70
2022-11-13T05:00:12.915Z,73.90
2022-11-13T05:03:04.453Z,74.21
2022-11-13T05:06:03.147Z,73.68
2022-11-13T05:08:54.867Z,73.99
2022-11-13T05:11:46.217Z,73.53
2022-11-13T05:14:38.435Z,73.96
2022-11-13T05:17:31.636Z,73.76
2022-11-13T05:20:23.286Z,73.55
2022-11-13T05:23:14.987Z,73.85
2022-11-13T05:26:08.899Z,73.94
2022-11-13T05:29:01.324Z,73.30
2022-11-13T05:31:52.625Z,73.49
2022-11-13T05:34:45.446Z,73.94
2022-11-13T05:37:37.112Z,73.87
2022-11-13T05:40:31.090Z,74.06
2022-11-13T05:43:26.364Z,73.85
2022-11-13T05:46:22.322Z,73.75
2022-11-13T05:49:13.617Z,74.10
2022-11-13T05:52:06.357Z,73.91
2022-11-13T05:54:58.051Z,73.84
2022-11-13T05:57:49.649Z,73.46
2022-11-13T06:00:41.439Z,73.86
2022-11-13T06:03:33.351Z,73.63
2022-11-13T06:06:26.833Z,74.22
2022-11-13T06:09:22.570Z,74.50
2022-11-13T06:12:13.740Z,73.69
2022-11-13T06:15:05.837Z,73.32
2022-11-13T06:17:56.996Z,73.62
2022-11-13T06:20:48.467Z,73.76
2022-11-13T06:23:41.607Z,73.46
2022-11-13T06:26:36.334Z,73.30
2022-11-13T06:29:28.598Z,73.70
2022-11-13T06:32:19.955Z,73.26
2022-11-13T06:35:11.486Z,73.59
2022-11-13T06:38:03.087Z,73.56
2022-11-13T06:41:00.158Z,73.22
2022-11-13T06:43:55.640Z,73.32
2022-11-13T06:46:49.549Z,73.49
2022-11-13T06:49:41.530Z,73.35
2022-11-13T06:52:33.657Z,73.36
2022-11-13T06:55:26.113Z,73.29
2022-11-13T06:58:17.842Z,72.93
2022-11-13T07:01:12.039Z,73.15
2022-11-13T07:04:04.735Z,72.93
2022-11-13T07:06:56.026Z,72.98
2022-11-13T07:09:47.491Z,73.09
2022-11-13T07:12:38.929Z,73.23
2022-11-13T07:15:30.228Z,72.82
2022-11-13T07:18:24.231Z,73.15
2022-11-13T07:21:15.563Z,73.50
2022-11-13T07:24:10.426Z,72.93
2022-11-13T07:27:04.057Z,72.80
2022-11-13T07:29:59.488Z,73.11
2022-11-13T07:32:54.161Z,73.13
2022-11-13T07:35:46.657Z,72.66
2022-11-13T07:38:37.926Z,73.26
2022-11-13T07:41:29.303Z,72.92
2022-11-13T07:44:47.748Z,72.84
2022-11-13T07:47:31.864Z,72.93
2022-11-13T07:50:33.028Z,72.66
2022-11-13T07:53:25.841Z,72.97
2022-11-13T07:56:22.762Z,73.30
2022-11-13T07:59:14.881Z,73.10
2022-11-13T08:02:07.402Z,73.13
2022-11-13T08:04:58.787Z,72.95
2022-11-13T08:07:51.519Z,72.76
2022-11-13T08:10:46.045Z,73.17
2022-11-13T08:13:38.488Z,73.33
2022-11-13T08:16:29.664Z,73.48
2022-11-13T08:19:21.076Z,73.36
2022-11-13T08:22:12.010Z,73.54
2022-11-13T08:25:03.236Z,73.34
2022-11-13T08:27:56.027Z,73.24
2022-11-13T08:30:47.599Z,73.53
2022-11-13T08:33:38.916Z,73.28
2022-11-13T08:36:30.876Z,73.00
2022-11-13T08:39:22.291Z,72.88
2022-11-13T08:42:13.452Z,73.42
2022-11-13T08:45:06.790Z,73.30
2022-11-13T08:48:01.239Z,73.53
2022-11-13T08:50:53.611Z,73.73
2022-11-13T08:53:45.280Z,73.89
2022-11-13T08:56:36.377Z,74.00
2022-11-13T08:59:28.086Z,73.00
2022-11-13T09:02:20.863Z,73.06
2022-11-13T09:05:12.561Z,73.76
2022-11-13T09:08:04.136Z,74.40
2022-11-13T09:10:55.045Z,73.14
2022-11-13T09:13:50.663Z,73.75
2022-11-13T09:16:44.605Z,73.58
2022-11-13T09:19:37.246Z,73.37
2022-11-13T09:22:29.200Z,73.51
2022-11-13T09:25:20.570Z,73.90
2022-11-13T09:28:11.759Z,74.06
2022-11-13T09:31:05.222Z,73.76
2022-11-13T09:33:57.655Z,73.37
2022-11-13T09:36:50.282Z,73.25
2022-11-13T09:39:41.623Z,73.76
2022-11-13T09:42:42.326Z,73.64
2022-11-13T09:45:36.026Z,73.34
2022-11-13T09:48:30.924Z,73.30
2022-11-13T09:51:25.906Z,73.47
2022-11-13T09:54:19.142Z,73.76
2022-11-13T09:57:25.770Z,72.49
2022-11-13T10:00:20.272Z,73.12
2022-11-13T10:03:59.353Z,72.95
2022-11-13T10:06:50.622Z,71.63
2022-11-13T10:09:55.314Z,74.08
2022-11-13T10:12:49.726Z,73.79
2022-11-13T10:15:44.134Z,73.61
2022-11-13T10:18:38.919Z,73.43
2022-11-13T10:21:36.407Z,75.04
2022-11-13T10:24:31.172Z,73.83
2022-11-13T10:27:25.439Z,73.28
2022-11-13T10:30:44.140Z,72.68
2022-11-13T10:33:35.766Z,75.06
2022-11-13T10:36:36.512Z,73.02
2022-11-13T10:39:29.314Z,74.12
2022-11-13T10:42:28.513Z,73.47
2022-11-13T10:45:23.016Z,72.41
2022-11-13T10:48:32.813Z,75.61
2022-11-13T10:51:26.939Z,74.54
2022-11-13T10:54:25.207Z,71.85
2022-11-13T10:57:28.962Z,74.66
2022-11-13T11:00:23.380Z,72.47
2022-11-13T11:03:15.945Z,71.76
2022-11-13T11:06:08.127Z,71.29
2022-11-13T11:09:07.370Z,73.76
2022-11-13T11:12:18.982Z,72.08
2022-11-13T11:15:22.250Z,71.66
2022-11-13T11:18:25.853Z,69.48
2022-11-13T11:21:22.304Z,71.14
2022-11-13T11:24:18.310Z,72.63
2022-11-13T11:27:17.894Z,73.10
2022-11-13T11:30:19.652Z,72.42
2022-11-13T11:33:16.636Z,72.39
2022-11-13T11:36:16.935Z,70.20
2022-11-13T11:39:26.926Z,73.61
2022-11-13T11:42:28.883Z,73.76
2022-11-13T11:45:27.825Z,75.41
2022-11-13T11:48:22.704Z,74.28
2022-11-13T11:51:22.275Z,72.05
2022-11-13T11:54:27.597Z,73.34
2022-11-13T11:57:40.368Z,74.83
2022-11-13T12:00:34.276Z,73.73
2022-11-13T12:03:47.810Z,73.69
2022-11-13T12:06:50.447Z,74.16
2022-11-13T12:09:48.434Z,74.11
2022-11-13T12:12:56.285Z,73.37
2022-11-13T12:15:58.806Z,73.25
2022-11-13T12:19:00.689Z,74.00
2022-11-13T12:22:06.218Z,74.25
2022-11-13T12:25:10.177Z,73.48
2022-11-13T12:28:12.951Z,72.55
2022-11-13T12:31:15.522Z,73.86
2022-11-13T12:34:17.378Z,73.91
2022-11-13T12:37:15.529Z,73.93
2022-11-13T12:40:14.014Z,73.91
2022-11-13T12:43:33.663Z,73.63
2022-11-13T12:46:35.817Z,73.53
2022-11-13T12:49:30.766Z,73.57
2022-11-13T12:52:24.543Z,73.41
2022-11-13T12:55:28.852Z,73.42
2022-11-13T12:58:22.835Z,73.63
2022-11-13T13:01:18.905Z,73.50
2022-11-13T13:04:41.386Z,73.59
2022-11-13T13:08:44.080Z,73.61
2022-11-13T13:11:44.882Z,73.72
2022-11-13T13:14:54.029Z,73.55
2022-11-13T13:18:08.278Z,73.74
2022-11-13T13:21:06.253Z,73.55
2022-11-13T13:24:09.880Z,73.23
2022-11-13T13:27:41.300Z,73.55
2022-11-13T13:30:49.548Z,73.52
2022-11-13T13:38:05.867Z,73.10
2022-11-13T13:42:05.723Z,73.08
2022-11-13T13:59:45.782Z,73.59
2022-11-13T14:03:29.265Z,73.90
2022-11-13T14:06:30.182Z,71.16
2022-11-13T14:09:23.373Z,73.39
2022-11-13T14:12:19.052Z,74.02
2022-11-13T14:16:17.078Z,74.13
2022-11-13T14:20:13.263Z,73.32
2022-11-13T14:23:16.473Z,73.25
2022-11-13T14:26:11.075Z,73.28
2022-11-13T14:29:03.868Z,72.77
2022-11-13T14:31:55.643Z,74.91
2022-11-13T14:34:49.412Z,73.23
2022-11-13T14:41:39.877Z,74.55
2022-11-13T14:44:32.769Z,73.04
2022-11-13T14:47:40.764Z,73.52
2022-11-13T14:51:47.386Z,74.28
2022-11-13T14:54:46.975Z,73.20
2022-11-13T14:57:51.285Z,73.92
2022-11-13T15:01:36.770Z,73.06
2022-11-13T15:04:40.188Z,73.43
2022-11-13T15:07:48.657Z,74.89
2022-11-13T15:10:40.510Z,73.94
2022-11-13T15:13:33.121Z,74.33
2022-11-13T15:16:28.936Z,74.86
2022-11-13T15:19:26.764Z,74.58
2022-11-13T15:23:00.344Z,74.04
2022-11-13T15:25:51.860Z,73.57
2022-11-13T15:28:45.281Z,74.50
2022-11-13T15:31:39.576Z,74.96
2022-11-13T15:34:31.065Z,75.12
2022-11-13T15:37:22.564Z,74.81
2022-11-13T15:40:15.157Z,75.99
2022-11-13T15:43:16.422Z,74.86
2022-11-13T15:46:26.838Z,74.39
2022-11-13T15:49:18.108Z,74.54
2022-11-13T15:52:10.742Z,75.98
2022-11-13T15:55:03.150Z,76.30
2022-11-13T15:58:05.194Z,76.36
2022-11-13T16:01:06.338Z,76.15
2022-11-13T16:04:14.091Z,73.77
2022-11-13T16:07:25.227Z,73.45
2022-11-13T16:10:50.297Z,72.91
2022-11-13T16:13:42.108Z,72.94
2022-11-13T16:16:38.314Z,72.51
2022-11-13T16:19:31.935Z,73.43
2022-11-13T16:22:24.647Z,72.65
2022-11-13T16:25:18.892Z,72.51
2022-11-13T16:28:16.393Z,72.71
2022-11-13T16:31:08.346Z,72.75
2022-11-13T16:33:59.875Z,73.25
2022-11-13T16:36:53.388Z,72.69
2022-11-13T16:39:45.565Z,72.51
2022-11-13T16:42:37.223Z,72.77
2022-11-13T16:45:29.150Z,74.77
2022-11-13T16:48:20.675Z,72.60
2022-11-13T16:51:12.204Z,73.35
2022-11-13T16:54:12.487Z,73.26
2022-11-13T16:57:06.362Z,72.98
2022-11-13T16:59:57.614Z,73.14
2022-11-13T17:02:53.299Z,73.12
2022-11-13T17:05:44.780Z,73.03
2022-11-13T17:08:36.055Z,72.97
2022-11-13T17:11:33.058Z,73.33
2022-11-13T17:14:24.827Z,73.15
2022-11-13T17:17:16.182Z,73.13
2022-11-13T17:20:11.744Z,73.59
2022-11-13T17:23:02.982Z,73.16
2022-11-13T17:25:54.387Z,73.25
2022-11-13T17:28:47.173Z,73.51
2022-11-13T17:31:38.310Z,74.84
2022-11-13T17:34:29.932Z,72.99
2022-11-13T17:37:25.335Z,72.99
2022-11-13T17:40:17.467Z,73.02
2022-11-13T17:43:10.411Z,72.90
2022-11-13T17:46:05.592Z,73.04
2022-11-13T17:48:57.193Z,73.41
2022-11-13T17:51:51.268Z,73.19
2022-11-13T17:54:44.045Z,73.05
2022-11-13T17:57:40.592Z,73.08
2022-11-13T18:00:32.502Z,73.72
2022-11-13T18:03:25.227Z,73.32
2022-11-13T18:06:20.050Z,73.23
2022-11-13T18:09:12.135Z,73.30
2022-11-13T18:12:04.118Z,73.28
2022-11-13T18:14:58.139Z,73.04
2022-11-13T18:17:49.517Z,73.05
2022-11-13T18:20:42.940Z,72.98
2022-11-13T18:23:34.481Z,73.05
2022-11-13T18:26:25.608Z,72.97
2022-11-13T18:29:17.707Z,72.89
2022-11-13T18:32:12.352Z,73.10
2022-11-13T18:35:05.159Z,73.24
2022-11-13T18:38:00.830Z,73.15
2022-11-13T18:40:53.073Z,73.04
2022-11-13T18:43:45.271Z,73.22
2022-11-13T18:47:12.579Z,73.16
2022-11-13T18:50:03.999Z,72.97
2022-11-13T18:52:56.513Z,72.89
2022-11-13T18:56:21.695Z,72.55
2022-11-13T19:00:51.096Z,72.56
2022-11-13T19:04:08.155Z,72.82
2022-11-13T19:07:19.033Z,72.98
2022-11-13T19:10:18.036Z,72.32
2022-11-13T19:13:11.894Z,72.80
2022-11-13T19:19:47.714Z,72.71
2022-11-13T19:22:41.899Z,72.80
2022-11-13T19:25:35.174Z,72.95
2022-11-13T19:28:32.597Z,72.88
2022-11-13T19:35:22.966Z,72.98
2022-11-13T19:38:29.224Z,73.14
2022-11-13T19:41:29.455Z,73.32
2022-11-13T19:44:21.598Z,72.92
2022-11-13T19:47:13.428Z,73.06
2022-11-13T19:50:06.351Z,73.19
2022-11-13T19:53:02.249Z,73.02
2022-11-13T19:55:59.573Z,73.12
2022-11-13T19:58:52.853Z,73.18
2022-11-13T20:01:44.441Z,72.86
2022-11-13T20:04:36.266Z,73.21
2022-11-13T20:07:31.296Z,72.94
2022-11-13T20:10:24.279Z,73.16
2022-11-13T20:13:20.812Z,73.25
2022-11-13T20:16:22.402Z,73.29
2022-11-13T20:19:23.687Z,72.86
2022-11-13T20:22:15.718Z,73.04
2022-11-13T20:25:12.878Z,73.61
2022-11-13T20:28:10.300Z,73.27
2022-11-13T20:31:11.713Z,72.96
2022-11-13T20:34:04.011Z,73.33
2022-11-13T20:36:58.461Z,73.76
2022-11-13T20:39:49.930Z,73.78
2022-11-13T20:42:41.671Z,73.93
2022-11-13T20:45:36.503Z,73.37
2022-11-13T20:48:30.701Z,73.74
2022-11-13T20:51:24.627Z,73.62
2022-11-13T20:54:16.257Z,73.47
2022-11-13T20:57:09.338Z,73.45
2022-11-13T21:00:00.884Z,73.12
2022-11-13T21:02:54.490Z,73.55
2022-11-13T21:05:47.256Z,73.37
2022-11-13T21:08:43.573Z,73.03
2022-11-13T21:11:35.747Z,73.66
2022-11-13T21:14:27.573Z,73.35
2022-11-13T21:17:19.245Z,72.95
2022-11-13T21:20:21.039Z,72.98
2022-11-13T21:23:19.362Z,73.24
2022-11-13T21:26:11.238Z,72.88
2022-11-13T21:29:02.983Z,72.84
2022-11-13T21:31:54.888Z,72.96
2022-11-13T21:34:47.245Z,73.04
2022-11-13T21:37:39.856Z,73.21
2022-11-13T21:40:31.271Z,73.03
2022-11-13T21:43:22.652Z,72.97
2022-11-13T21:46:15.067Z,73.16
2022-11-13T21:49:09.680Z,73.44
2022-11-13T21:52:00.879Z,72.89
2022-11-13T21:54:53.829Z,73.24
2022-11-13T21:57:45.165Z,72.94
2022-11-13T22:00:37.043Z,72.92
2022-11-13T22:03:29.421Z,72.85
2022-11-13T22:06:23.168Z,73.06
2022-11-13T22:09:18.923Z,72.64
2022-11-13T22:12:14.318Z,72.90
2022-11-13T22:15:08.999Z,72.66
2022-11-13T22:18:03.771Z,72.57
2022-11-13T22:21:00.167Z,72.88
2022-11-13T22:23:51.711Z,72.55
2022-11-13T22:26:46.060Z,72.55
2022-11-13T22:29:38.866Z,72.86
2022-11-13T22:32:30.614Z,73.03
2022-11-13T22:35:23.514Z,72.85
2022-11-13T22:38:15.383Z,72.66
2022-11-13T22:41:12.825Z,72.73
2022-11-13T22:44:06.926Z,72.88
2022-11-13T22:46:59.570Z,72.42
2022-11-13T22:49:51.461Z,72.61
2022-11-13T22:52:42.467Z,72.77
2022-11-13T22:55:34.547Z,72.56
2022-11-13T22:58:25.980Z,72.65
2022-11-13T23:01:19.351Z,72.64
2022-11-13T23:04:15.183Z,72.45
2022-11-13T23:07:06.720Z,72.44
2022-11-13T23:09:58.104Z,72.57
2022-11-13T23:12:51.472Z,72.62
2022-11-13T23:15:43.129Z,72.89
2022-11-13T23:18:34.912Z,72.87
2022-11-13T23:21:28.586Z,72.95
2022-11-13T23:24:19.884Z,72.46
2022-11-13T23:27:11.503Z,72.71
2022-11-13T23:30:07.432Z,72.65
2022-11-13T23:32:58.899Z,72.64
2022-11-13T23:35:50.954Z,72.78
2022-11-13T23:38:43.920Z,72.50
2022-11-13T23:41:35.545Z,72.56
2022-11-13T23:44:27.053Z,72.49
2022-11-13T23:47:21.187Z,72.67
2022-11-13T23:50:12.346Z,72.68
2022-11-13T23:53:05.463Z,72.74
2022-11-13T23:55:58.357Z,72.73
2022-11-13T23:58:52.709Z,72.78
